createdAt,value
2018-01-13T00:00:33.542Z,3.41
2018-01-13T00:03:01.937Z,3.43
2018-01-13T00:05:30.392Z,3.45
2018-01-13T00:07:58.749Z,3.44
2018-01-13T00:10:27.372Z,3.43
2018-01-13T00:12:55.703Z,3.40
2018-01-13T00:15:24.298Z,3.29
2018-01-13T00:17:52.645Z,3.40
2018-01-13T00:20:21.912Z,3.48
2018-01-13T00:22:50.345Z,3.44
2018-01-13T00:25:18.761Z,3.49
2018-01-13T00:27:47.092Z,3.46
2018-01-13T00:30:15.508Z,3.47
2018-01-13T00:32:43.956Z,3.47
2018-01-13T00:35:12.288Z,3.52
2018-01-13T00:37:40.677Z,3.48
2018-01-13T00:40:09.859Z,3.49
2018-01-13T00:42:38.261Z,3.61
2018-01-13T00:45:07.371Z,3.50
2018-01-13T00:47:35.775Z,3.48
2018-01-13T00:50:04.213Z,3.58
2018-01-13T00:52:33.319Z,3.59
2018-01-13T00:55:02.405Z,3.49
2018-01-13T00:57:31.655Z,3.46
2018-01-13T01:00:00.067Z,3.38
2018-01-13T01:02:29.176Z,3.40
2018-01-13T01:04:57.542Z,3.41
2018-01-13T01:07:25.942Z,3.40
2018-01-13T01:09:54.419Z,3.46
2018-01-13T01:12:23.576Z,3.35
2018-01-13T01:14:51.982Z,3.30
2018-01-13T01:17:21.186Z,3.34
2018-01-13T01:19:50.346Z,3.46
2018-01-13T01:22:18.712Z,3.31
2018-01-13T01:24:47.101Z,3.28
2018-01-13T01:27:15.586Z,3.30
2018-01-13T01:29:44.013Z,3.28
2018-01-13T01:32:13.170Z,3.38
2018-01-13T01:34:41.568Z,3.35
2018-01-13T01:37:09.958Z,3.32
2018-01-13T01:39:39.078Z,3.36
2018-01-13T01:42:07.508Z,3.35
2018-01-13T01:44:35.853Z,3.26
2018-01-13T01:47:04.250Z,3.32
2018-01-13T01:49:32.663Z,3.28
2018-01-13T01:52:01.810Z,3.36
2018-01-13T01:54:30.273Z,3.33
2018-01-13T01:56:58.717Z,3.35
2018-01-13T01:59:27.831Z,3.23
2018-01-13T02:01:56.947Z,3.31
2018-01-13T02:04:25.279Z,3.23
2018-01-13T02:06:53.705Z,3.25
2018-01-13T02:09:22.071Z,3.20
2018-01-13T02:11:50.399Z,3.26
2018-01-13T02:14:18.746Z,3.30
2018-01-13T02:16:47.169Z,3.33
2018-01-13T02:19:15.578Z,3.28
2018-01-13T02:21:43.932Z,3.29
2018-01-13T02:24:12.585Z,3.40
2018-01-13T02:26:41.013Z,3.33
2018-01-13T02:29:09.383Z,3.35
2018-01-13T02:31:38.537Z,3.29
2018-01-13T02:34:06.930Z,3.26
2018-01-13T02:36:35.265Z,3.14
2018-01-13T02:39:03.690Z,3.25
2018-01-13T02:41:32.098Z,3.18
2018-01-13T02:44:00.471Z,3.19
2018-01-13T02:46:29.604Z,3.20
2018-01-13T02:48:57.947Z,3.20
2018-01-13T02:51:27.051Z,3.10
2018-01-13T02:53:56.223Z,3.12
2018-01-13T02:56:24.628Z,3.11
2018-01-13T02:58:53.060Z,3.17
2018-01-13T03:01:21.527Z,3.21
2018-01-13T03:03:49.943Z,2.97
2018-01-13T03:06:19.047Z,3.02
2018-01-13T03:08:48.257Z,3.05
2018-01-13T03:11:17.421Z,3.05
2018-01-13T03:13:45.762Z,3.11
2018-01-13T03:16:14.193Z,3.13
2018-01-13T03:18:43.343Z,3.10
2018-01-13T03:21:11.749Z,3.14
2018-01-13T03:23:40.195Z,3.12
2018-01-13T03:26:08.596Z,3.01
2018-01-13T03:28:36.997Z,3.05
2018-01-13T03:31:05.426Z,2.99
2018-01-13T03:33:33.826Z,3.03
2018-01-13T03:36:02.262Z,3.13
2018-01-13T03:38:30.594Z,3.14
2018-01-13T03:40:58.993Z,3.06
2018-01-13T03:43:27.427Z,2.89
2018-01-13T03:45:55.826Z,2.76
2018-01-13T03:48:24.243Z,2.83
2018-01-13T03:50:53.404Z,2.83
2018-01-13T03:53:21.799Z,2.80
2018-01-13T03:55:50.136Z,2.88
2018-01-13T03:58:18.572Z,2.87
2018-01-13T04:00:47.690Z,2.97
2018-01-13T04:03:16.008Z,2.95
2018-01-13T04:05:44.557Z,2.89
2018-01-13T04:08:12.919Z,2.94
2018-01-13T04:10:42.063Z,2.87
2018-01-13T04:13:10.482Z,2.95
2018-01-13T04:15:39.607Z,2.99
2018-01-13T04:18:08.091Z,2.97
2018-01-13T04:20:36.427Z,2.95
2018-01-13T04:23:04.817Z,2.97
2018-01-13T04:25:34.110Z,2.88
2018-01-13T04:28:03.204Z,2.85
2018-01-13T04:30:31.593Z,2.91
2018-01-13T04:33:00.731Z,2.87
2018-01-13T04:35:29.085Z,2.78
2018-01-13T04:37:57.412Z,2.76
2018-01-13T04:40:25.827Z,2.76
2018-01-13T04:42:54.993Z,2.85
2018-01-13T04:45:23.398Z,2.75
2018-01-13T04:47:52.546Z,2.77
2018-01-13T04:50:20.951Z,2.75
2018-01-13T04:52:49.381Z,2.82
2018-01-13T04:55:17.727Z,2.78
2018-01-13T04:57:47.003Z,2.82
2018-01-13T05:00:15.401Z,2.86
2018-01-13T05:02:44.554Z,2.85
2018-01-13T05:05:12.997Z,2.83
2018-01-13T05:07:41.398Z,2.81
2018-01-13T05:10:09.789Z,2.82
2018-01-13T05:12:38.204Z,2.90
2018-01-13T05:15:06.609Z,2.77
2018-01-13T05:17:35.723Z,2.84
2018-01-13T05:20:04.074Z,2.83
2018-01-13T05:22:33.180Z,2.83
2018-01-13T05:25:02.415Z,2.78
2018-01-13T05:27:30.856Z,2.87
2018-01-13T05:29:59.953Z,2.94
2018-01-13T05:32:29.151Z,2.73
2018-01-13T05:34:57.487Z,2.74
2018-01-13T05:37:25.909Z,2.67
2018-01-13T05:39:54.884Z,2.86
2018-01-13T05:42:24.237Z,2.64
2018-01-13T05:44:52.730Z,2.64
2018-01-13T05:47:21.070Z,2.58
2018-01-13T05:49:49.431Z,2.63
2018-01-13T05:52:18.674Z,2.62
2018-01-13T05:54:47.075Z,2.59
2018-01-13T05:57:15.409Z,2.58
2018-01-13T05:59:43.952Z,2.57
2018-01-13T06:02:12.296Z,2.72
2018-01-13T06:04:40.627Z,2.52
2018-01-13T06:07:09.805Z,2.67
2018-01-13T06:09:38.139Z,2.58
2018-01-13T06:12:06.468Z,2.61
2018-01-13T06:14:35.605Z,2.58
2018-01-13T06:17:04.014Z,2.54
2018-01-13T06:19:32.413Z,2.60
2018-01-13T06:22:01.633Z,2.58
2018-01-13T06:24:29.966Z,2.48
2018-01-13T06:26:58.287Z,2.48
2018-01-13T06:29:27.476Z,2.46
2018-01-13T06:31:56.659Z,2.36
2018-01-13T06:34:26.033Z,2.40
2018-01-13T06:36:54.395Z,2.40
2018-01-13T06:39:22.794Z,2.36
2018-01-13T06:41:51.265Z,2.43
2018-01-13T06:44:19.717Z,2.34
2018-01-13T06:46:48.050Z,2.38
2018-01-13T06:49:16.434Z,2.47
2018-01-13T06:51:44.846Z,2.50
2018-01-13T06:54:13.282Z,2.46
2018-01-13T06:56:41.739Z,2.34
2018-01-13T06:59:10.104Z,2.47
2018-01-13T07:01:38.444Z,2.46
2018-01-13T07:04:07.835Z,2.36
2018-01-13T07:06:37.008Z,2.35
2018-01-13T07:09:05.386Z,2.32
2018-01-13T07:11:33.858Z,2.36
2018-01-13T07:14:02.216Z,2.34
2018-01-13T07:16:30.727Z,2.43
2018-01-13T07:18:59.122Z,2.40
2018-01-13T07:21:28.290Z,2.47
2018-01-13T07:23:56.745Z,2.44
2018-01-13T07:26:25.146Z,2.49
2018-01-13T07:28:53.575Z,2.31
2018-01-13T07:31:21.952Z,2.37
2018-01-13T07:33:51.115Z,2.46
2018-01-13T07:36:19.510Z,2.42
2018-01-13T07:38:48.723Z,2.27
2018-01-13T07:41:17.841Z,2.30
2018-01-13T07:43:46.176Z,2.30
2018-01-13T07:46:16.179Z,2.35
2018-01-13T07:48:44.580Z,2.33
2018-01-13T07:51:13.740Z,2.33
2018-01-13T07:53:42.170Z,2.36
2018-01-13T07:56:11.281Z,2.39
2018-01-13T07:58:39.804Z,2.50
2018-01-13T08:01:08.254Z,2.65
2018-01-13T08:03:36.662Z,2.64
2018-01-13T08:06:05.065Z,2.61
2018-01-13T08:08:34.317Z,2.45
2018-01-13T08:11:03.592Z,2.44
2018-01-13T08:13:32.174Z,2.39
2018-01-13T08:16:00.755Z,2.31
2018-01-13T08:18:29.123Z,2.35
2018-01-13T08:20:58.392Z,2.36
2018-01-13T08:23:28.338Z,2.41
2018-01-13T08:25:57.463Z,2.47
2018-01-13T08:28:25.874Z,2.48
2018-01-13T08:30:54.329Z,2.43
2018-01-13T08:33:22.718Z,2.40
2018-01-13T08:35:51.190Z,2.45
2018-01-13T08:38:19.645Z,2.33
2018-01-13T08:40:48.042Z,2.38
2018-01-13T08:43:16.464Z,2.24
2018-01-13T08:45:44.850Z,2.27
2018-01-13T08:48:13.303Z,2.14
2018-01-13T08:50:41.706Z,2.14
2018-01-13T08:53:10.192Z,2.14
2018-01-13T08:55:38.618Z,2.17
2018-01-13T08:58:06.973Z,2.14
2018-01-13T09:00:35.534Z,2.31
2018-01-13T09:03:04.712Z,2.30
2018-01-13T09:05:33.321Z,2.39
2018-01-13T09:08:02.459Z,2.29
2018-01-13T09:10:30.782Z,2.27
2018-01-13T09:12:59.173Z,2.31
2018-01-13T09:15:28.344Z,2.41
2018-01-13T09:17:56.831Z,2.42
2018-01-13T09:20:25.518Z,2.39
2018-01-13T09:22:53.922Z,2.33
2018-01-13T09:25:23.084Z,2.41
2018-01-13T09:27:51.890Z,2.45
2018-01-13T09:30:20.313Z,2.52
2018-01-13T09:32:48.810Z,2.47
2018-01-13T09:35:17.238Z,2.39
2018-01-13T09:37:46.442Z,2.53
2018-01-13T09:40:14.872Z,2.37
2018-01-13T09:42:43.305Z,2.64
2018-01-13T09:45:11.724Z,2.59
2018-01-13T09:47:40.276Z,2.71
2018-01-13T09:50:09.621Z,2.58
2018-01-13T09:52:38.118Z,2.62
2018-01-13T09:55:06.834Z,2.59
2018-01-13T09:57:35.204Z,2.64
2018-01-13T10:00:03.595Z,2.62
2018-01-13T10:02:32.119Z,2.60
2018-01-13T10:05:01.068Z,2.69
2018-01-13T10:07:29.606Z,2.75
2018-01-13T10:09:58.031Z,2.82
2018-01-13T10:12:27.183Z,2.59
2018-01-13T10:14:55.614Z,2.68
2018-01-13T10:17:23.984Z,2.58
2018-01-13T10:19:53.277Z,2.68
2018-01-13T10:22:22.389Z,2.71
2018-01-13T10:24:51.583Z,2.62
2018-01-13T10:27:19.964Z,2.62
2018-01-13T10:29:49.135Z,2.60
2018-01-13T10:32:18.243Z,2.53
2018-01-13T10:34:47.370Z,2.63
2018-01-13T10:37:15.702Z,2.66
2018-01-13T10:39:44.340Z,2.73
2018-01-13T10:42:12.712Z,2.72
2018-01-13T10:44:41.140Z,2.69
2018-01-13T10:47:09.598Z,2.60
2018-01-13T10:49:38.023Z,2.69
2018-01-13T10:52:07.183Z,2.74
2018-01-13T10:54:37.443Z,2.86
2018-01-13T10:57:06.597Z,2.74
2018-01-13T10:59:34.939Z,2.81
2018-01-13T11:02:03.275Z,2.66
2018-01-13T11:04:31.660Z,2.47
2018-01-13T11:06:59.995Z,2.56
2018-01-13T11:09:28.445Z,2.93
2018-01-13T11:11:56.947Z,2.58
2018-01-13T11:14:26.184Z,2.60
2018-01-13T11:16:55.385Z,2.81
2018-01-13T11:19:23.729Z,2.83
2018-01-13T11:21:52.135Z,3.09
2018-01-13T11:24:20.586Z,3.11
2018-01-13T11:26:48.957Z,3.15
2018-01-13T11:29:17.348Z,2.97
2018-01-13T11:31:45.768Z,3.22
2018-01-13T11:34:14.867Z,3.32
2018-01-13T11:36:44.001Z,3.44
2018-01-13T11:39:12.416Z,3.15
2018-01-13T11:41:40.817Z,3.10
2018-01-13T11:44:09.954Z,3.18
2018-01-13T11:46:38.322Z,3.20
2018-01-13T11:49:06.734Z,3.35
2018-01-13T11:51:35.072Z,3.23
2018-01-13T11:54:04.259Z,3.09
2018-01-13T11:56:33.361Z,3.11
2018-01-13T11:59:01.723Z,3.08
2018-01-13T12:01:30.055Z,2.98
2018-01-13T12:03:58.442Z,3.11
2018-01-13T12:06:26.803Z,2.90
2018-01-13T12:08:55.194Z,2.98
2018-01-13T12:11:24.323Z,3.08
2018-01-13T12:13:52.741Z,3.12
2018-01-13T12:16:21.076Z,3.28
2018-01-13T12:18:49.393Z,3.37
2018-01-13T12:21:17.732Z,3.37
2018-01-13T12:23:46.058Z,3.15
2018-01-13T12:26:14.443Z,3.20
2018-01-13T12:28:42.811Z,3.06
2018-01-13T12:31:11.224Z,3.18
2018-01-13T12:33:41.067Z,3.30
2018-01-13T12:36:10.171Z,3.53
2018-01-13T12:38:39.375Z,3.33
2018-01-13T12:41:08.590Z,3.32
2018-01-13T12:43:36.975Z,3.22
2018-01-13T12:46:05.311Z,3.16
2018-01-13T12:48:33.703Z,3.02
2018-01-13T12:51:02.069Z,2.99
2018-01-13T12:53:30.429Z,3.05
2018-01-13T12:55:58.851Z,3.15
2018-01-13T12:58:27.223Z,2.89
2018-01-13T13:00:56.383Z,2.94
2018-01-13T13:03:24.745Z,2.85
2018-01-13T13:05:53.237Z,2.72
2018-01-13T13:08:21.571Z,2.93
2018-01-13T13:10:49.887Z,2.84
2018-01-13T13:13:18.270Z,2.89
2018-01-13T13:15:46.601Z,2.88
2018-01-13T13:18:14.957Z,2.76
2018-01-13T13:20:44.138Z,2.70
2018-01-13T13:23:13.307Z,2.78
2018-01-13T13:25:41.727Z,2.65
2018-01-13T13:28:10.923Z,2.64
2018-01-13T13:30:40.108Z,2.55
2018-01-13T13:33:08.445Z,2.61
2018-01-13T13:35:36.862Z,2.46
2018-01-13T13:38:05.268Z,2.48
2018-01-13T13:40:33.607Z,2.52
2018-01-13T13:43:02.066Z,2.50
2018-01-13T13:45:30.482Z,2.56
2018-01-13T13:47:59.621Z,2.53
2018-01-13T13:50:27.979Z,2.58
2018-01-13T13:52:57.185Z,2.47
2018-01-13T13:55:25.576Z,2.41
2018-01-13T13:57:54.079Z,2.40
2018-01-13T14:00:22.418Z,2.35
2018-01-13T14:02:50.764Z,2.45
2018-01-13T14:05:19.198Z,2.34
2018-01-13T14:07:47.528Z,2.24
2018-01-13T14:10:16.646Z,2.23
2018-01-13T14:12:45.834Z,2.09
2018-01-13T14:15:15.097Z,2.00
2018-01-13T14:17:43.424Z,2.09
2018-01-13T14:20:12.298Z,2.00
2018-01-13T14:22:40.706Z,2.09
2018-01-13T14:25:09.048Z,2.00
2018-01-13T14:27:38.228Z,2.05
2018-01-13T14:30:06.647Z,2.01
2018-01-13T14:32:35.065Z,1.98
2018-01-13T14:35:03.439Z,1.82
2018-01-13T14:37:31.861Z,1.89
2018-01-13T14:40:01.050Z,1.83
2018-01-13T14:42:30.221Z,1.90
2018-01-13T14:44:58.601Z,1.88
2018-01-13T14:47:26.990Z,1.81
2018-01-13T14:49:55.333Z,1.78
2018-01-13T14:52:23.752Z,1.88
2018-01-13T14:54:52.160Z,1.81
2018-01-13T14:57:20.516Z,1.70
2018-01-13T14:59:48.922Z,1.61
2018-01-13T15:02:17.252Z,1.75
2018-01-13T15:04:45.860Z,1.68
2018-01-13T15:07:14.309Z,1.62
2018-01-13T15:09:42.716Z,1.54
2018-01-13T15:12:11.894Z,1.62
2018-01-13T15:14:40.286Z,1.58
2018-01-13T15:17:08.834Z,1.59
2018-01-13T15:19:37.206Z,1.52
2018-01-13T15:22:05.544Z,1.41
2018-01-13T15:24:34.643Z,1.46
2018-01-13T15:27:03.752Z,1.50
2018-01-13T15:29:32.103Z,1.54
2018-01-13T15:32:01.298Z,1.39
2018-01-13T15:34:29.647Z,1.34
2018-01-13T15:36:58.053Z,1.31
2018-01-13T15:39:27.272Z,1.13
2018-01-13T15:41:55.600Z,1.28
2018-01-13T15:44:24.007Z,1.35
2018-01-13T15:46:53.120Z,1.11
2018-01-13T15:49:22.276Z,1.25
2018-01-13T15:51:50.622Z,1.17
2018-01-13T15:54:19.127Z,1.26
2018-01-13T15:56:47.546Z,1.26
2018-01-13T15:59:16.771Z,1.18
2018-01-13T16:01:45.204Z,1.23
2018-01-13T16:04:14.348Z,1.15
2018-01-13T16:06:42.740Z,1.20
2018-01-13T16:09:11.173Z,1.22
2018-01-13T16:11:40.286Z,1.10
2018-01-13T16:14:09.420Z,1.10
2018-01-13T16:16:37.894Z,1.09
2018-01-13T16:19:06.309Z,1.15
2018-01-13T16:21:34.713Z,1.15
2018-01-13T16:24:03.147Z,1.07
2018-01-13T16:26:31.544Z,1.12
2018-01-13T16:28:59.880Z,1.20
2018-01-13T16:31:28.237Z,1.23
2018-01-13T16:33:57.395Z,1.10
2018-01-13T16:36:25.814Z,1.11
2018-01-13T16:38:54.269Z,1.13
2018-01-13T16:41:23.371Z,1.18
2018-01-13T16:43:51.743Z,1.11
2018-01-13T16:46:20.100Z,1.04
2018-01-13T16:48:48.548Z,1.07
2018-01-13T16:51:16.996Z,1.13
2018-01-13T16:53:46.187Z,1.01
2018-01-13T16:56:15.302Z,1.08
2018-01-13T16:58:43.930Z,1.04
2018-01-13T17:01:12.275Z,1.16
2018-01-13T17:03:40.779Z,1.17
2018-01-13T17:06:09.182Z,1.06
2018-01-13T17:08:37.579Z,1.03
2018-01-13T17:11:06.705Z,1.02
2018-01-13T17:13:35.125Z,1.08
2018-01-13T17:16:03.526Z,1.13
2018-01-13T17:18:31.872Z,1.10
2018-01-13T17:21:00.313Z,1.14
2018-01-13T17:23:28.651Z,1.15
2018-01-13T17:25:56.983Z,1.15
2018-01-13T17:28:25.371Z,1.17
2018-01-13T17:30:53.772Z,1.21
2018-01-13T17:33:22.120Z,1.15
2018-01-13T17:35:50.629Z,1.17
2018-01-13T17:38:18.963Z,1.23
2018-01-13T17:40:47.288Z,1.14
2018-01-13T17:43:15.640Z,1.18
2018-01-13T17:45:44.047Z,1.07
2018-01-13T17:48:12.371Z,1.07
2018-01-13T17:50:41.595Z,1.04
2018-01-13T17:53:10.026Z,0.96
2018-01-13T17:55:38.494Z,1.00
2018-01-13T17:58:07.065Z,0.94
2018-01-13T18:00:35.475Z,0.97
2018-01-13T18:03:04.613Z,1.04
2018-01-13T18:05:33.009Z,0.79
2018-01-13T18:08:02.197Z,0.88
2018-01-13T18:10:30.555Z,0.94
2018-01-13T18:12:58.956Z,0.85
2018-01-13T18:15:27.348Z,0.75
2018-01-13T18:17:56.127Z,0.75
2018-01-13T18:20:24.461Z,0.79
2018-01-13T18:22:53.552Z,0.78
2018-01-13T18:25:22.742Z,0.80
2018-01-13T18:27:51.935Z,0.76
2018-01-13T18:30:21.075Z,0.79
2018-01-13T18:32:49.453Z,0.77
2018-01-13T18:35:17.839Z,0.73
2018-01-13T18:37:46.402Z,0.82
2018-01-13T18:40:14.777Z,0.91
2018-01-13T18:42:43.180Z,0.85
2018-01-13T18:45:11.579Z,0.88
2018-01-13T18:47:40.123Z,0.83
2018-01-13T18:50:08.451Z,0.79
2018-01-13T18:52:36.879Z,0.91
2018-01-13T18:55:05.385Z,0.98
2018-01-13T18:57:33.784Z,1.06
2018-01-13T19:00:02.117Z,1.07
2018-01-13T19:02:30.473Z,1.09
2018-01-13T19:04:59.580Z,1.12
2018-01-13T19:07:28.347Z,1.17
2018-01-13T19:09:57.459Z,1.21
2018-01-13T19:12:26.543Z,1.20
2018-01-13T19:14:57.243Z,1.27
2018-01-13T19:17:25.950Z,1.33
2018-01-13T19:19:54.324Z,1.21
2018-01-13T19:22:22.756Z,1.27
2018-01-13T19:24:51.164Z,1.32
2018-01-13T19:27:19.491Z,1.28
2018-01-13T19:29:48.705Z,1.29
2018-01-13T19:32:17.060Z,1.23
2018-01-13T19:34:46.180Z,1.24
2018-01-13T19:37:14.662Z,1.28
2018-01-13T19:39:43.061Z,1.31
2018-01-13T19:42:12.231Z,1.29
2018-01-13T19:44:40.586Z,1.22
2018-01-13T19:47:09.736Z,1.26
2018-01-13T19:49:38.922Z,1.23
2018-01-13T19:52:07.514Z,1.25
2018-01-13T19:54:35.861Z,1.32
2018-01-13T19:57:04.196Z,1.38
2018-01-13T19:59:32.934Z,1.27
2018-01-13T20:02:01.347Z,1.29
2018-01-13T20:04:29.785Z,1.26
2018-01-13T20:06:58.211Z,1.22
2018-01-13T20:09:26.576Z,1.30
2018-01-13T20:11:54.923Z,1.32
2018-01-13T20:14:23.322Z,1.35
2018-01-13T20:16:51.663Z,1.43
2018-01-13T20:19:20.017Z,1.44
2018-01-13T20:21:49.188Z,1.43
2018-01-13T20:24:17.520Z,1.50
2018-01-13T20:26:45.903Z,1.39
2018-01-13T20:29:14.318Z,1.31
2018-01-13T20:31:42.774Z,1.29
2018-01-13T20:34:11.316Z,1.25
2018-01-13T20:36:40.405Z,1.20
2018-01-13T20:39:09.569Z,1.16
2018-01-13T20:41:37.927Z,1.18
2018-01-13T20:44:06.250Z,1.18
2018-01-13T20:46:34.668Z,1.17
2018-01-13T20:49:03.079Z,1.15
2018-01-13T20:51:31.548Z,1.12
2018-01-13T20:53:59.990Z,1.18
2018-01-13T20:56:28.316Z,1.22
2018-01-13T20:58:56.717Z,1.15
2018-01-13T21:01:25.087Z,1.15
2018-01-13T21:03:53.499Z,1.21
2018-01-13T21:06:22.616Z,1.22
2018-01-13T21:08:51.012Z,1.15
2018-01-13T21:11:19.545Z,1.21
2018-01-13T21:13:47.875Z,1.18
2018-01-13T21:16:16.197Z,1.09
2018-01-13T21:18:44.622Z,1.06
2018-01-13T21:21:12.975Z,1.14
2018-01-13T21:23:41.374Z,1.14
2018-01-13T21:26:09.798Z,1.14
2018-01-13T21:28:38.239Z,1.15
2018-01-13T21:31:06.561Z,1.09
2018-01-13T21:33:35.004Z,1.08
2018-01-13T21:36:03.356Z,1.09
2018-01-13T21:38:31.746Z,1.16
2018-01-13T21:41:00.255Z,1.13
2018-01-13T21:43:28.591Z,1.09
2018-01-13T21:45:57.003Z,1.05
2018-01-13T21:48:25.427Z,1.17
2018-01-13T21:50:54.539Z,1.14
2018-01-13T21:53:23.762Z,1.14
2018-01-13T21:55:52.273Z,1.14
2018-01-13T21:58:20.689Z,1.21
2018-01-13T22:00:49.102Z,1.19
2018-01-13T22:03:17.463Z,1.11
2018-01-13T22:05:45.787Z,1.15
2018-01-13T22:08:14.200Z,1.21
2018-01-13T22:10:42.569Z,1.24
2018-01-13T22:13:11.142Z,1.23
2018-01-13T22:15:40.315Z,1.25
2018-01-13T22:18:08.656Z,1.22
2018-01-13T22:20:37.051Z,1.23
2018-01-13T22:23:05.498Z,1.13
2018-01-13T22:25:33.881Z,1.09
2018-01-13T22:28:03.074Z,1.06
2018-01-13T22:30:31.399Z,1.10
2018-01-13T22:32:59.866Z,1.12
2018-01-13T22:35:28.253Z,1.15
2018-01-13T22:37:56.709Z,1.08
2018-01-13T22:40:25.113Z,1.19
2018-01-13T22:42:53.452Z,1.17
2018-01-13T22:45:21.889Z,1.18
2018-01-13T22:47:50.259Z,1.26
2018-01-13T22:50:18.658Z,1.29
2018-01-13T22:52:47.106Z,1.25
2018-01-13T22:55:15.499Z,1.22
2018-01-13T22:57:43.892Z,1.22
2018-01-13T23:00:12.228Z,1.22
2018-01-13T23:02:40.586Z,1.19
2018-01-13T23:05:09.107Z,1.20
2018-01-13T23:07:37.442Z,1.20
2018-01-13T23:10:05.772Z,1.24
2018-01-13T23:12:34.218Z,1.23
2018-01-13T23:15:02.718Z,1.27
2018-01-13T23:17:31.127Z,1.32
2018-01-13T23:19:59.559Z,1.30
2018-01-13T23:22:27.967Z,1.27
2018-01-13T23:24:56.393Z,1.28
2018-01-13T23:27:25.577Z,1.26
2018-01-13T23:29:54.006Z,1.26
2018-01-13T23:32:22.346Z,1.31
2018-01-13T23:34:51.615Z,1.24
2018-01-13T23:37:20.064Z,1.28
2018-01-13T23:39:48.392Z,1.30
2018-01-13T23:42:17.555Z,1.34
2018-01-13T23:44:45.973Z,1.22
2018-01-13T23:47:15.146Z,1.36
2018-01-13T23:49:44.362Z,1.38
2018-01-13T23:52:13.548Z,1.40
2018-01-13T23:54:42.717Z,1.41
2018-01-13T23:57:11.047Z,1.37
2018-01-13T23:59:40.159Z,1.41
